메인 페이지
METAR-TAF:

METAR-TAF

공항 :

리스본 포르텔라 국제공항

리스본, 포르투갈

위도: 38-46N, 경도: 009-08W, 고도: 114m

현재 날씨관측

예보는 39분 전, 09:30시(UTC)에 발표되었습니다.
북서9kt
온도 18°C
습도 73%
기압 1015 hPa
시정 10km 이상
고도 1000ft 상공 구름 조금

METAR: LPPT 200930Z 31009KT 9999 FEW010 18/13 Q1015

시각: 11:09 (10:09 UTC)

예보

예보는 5 시간 9분 전, 05:00시(UTC)에 발표되었습니다.
예보 대상 시간: 20일 06시부터 21일 12시까지 (UTC)
북북서8kt
시정 10km 이상
1500m 미만 상공 구름 및 적란운 없음
전환 중
20일 08시부터 20일 11시까지 (UTC)
여러 방향의 바람 3kt
시정 10km 이상
고도 3500ft 상공 구름 조금, 타워링 적운.
확률 30% :
일시적
20일 11시부터 20일 18시까지 (UTC)
시정: 5000m
고도 3000ft 상공 구름 보통, 적란운.
뇌우, 비
전환 중
20일 15시부터 20일 18시까지 (UTC)
북서10kt
전환 중
20일 21시부터 20일 24시까지 (UTC)
5kt
고도 1200ft 상공 구름 보통
일시적
21일 00시부터 21일 08시까지 (UTC)
고도 800ft 상공 구름 많음

TAF: LPPT 200500Z 2006/2112 34008KT CAVOK BECMG 2008/2011 VRB03KT 9999 FEW035TCU PROB30 TEMPO 2011/2018 5000 TSRA SCT030CB BECMG 2015/2018 31010KT BECMG 2021/2024 28005KT SCT012 TEMPO 2100/2108 BKN008

4,000개 이상의 공항 관측 자료 및 예보 (METAR 및 TAF 보고).

지도상에서 검색 가능한 기상관측소가 노란 점과 빨간 점으로 표시되어 있습니다.

기상관측소 명을 보려면 표시 위로 마우스를 이동하세요.

날씨 관측과 예보를 보려면 클릭하세요.

지도 변경 : 확대하려면 엑스 표시가 있는 녹색 버튼, 축소하려면 빼기 표시가 있는 녹색 버튼, 다음 페이지의 지도를 보려면 녹색 화살표를 클릭하세요.


METAR-TAF: